Terminal Aerodrome Forecast
Issued by NWS Louisville, KY

Home | Current Version | Previous Version | Text Only | Print | Product List | Glossary On
Versions: 1 2 3 4 5 6 7 8 9 10 11 12 13 14 15 16 17 18 19 20
000
FTUS43 KLMK 261700
TAFLEX
TAF
KLEX 261738Z 2618/2718 30010KT P6SM OVC015
     FM262000 31006KT P6SM SCT025 BKN050
     FM270100 VRB04KT P6SM BKN025 BKN050
     FM270800 VRB04KT P6SM -SN BKN025
     FM271500 35008KT P6SM BKN035=

USA.gov is the U.S. government's official web portal to all federal, state and local government web resources and services.